createdAt,value
2018-10-19T00:00:34.573Z,8.82
2018-10-19T00:03:02.641Z,8.70
2018-10-19T00:05:30.638Z,8.61
2018-10-19T00:07:58.629Z,8.65
2018-10-19T00:10:26.612Z,8.64
2018-10-19T00:12:54.670Z,8.62
2018-10-19T00:15:22.586Z,8.60
2018-10-19T00:17:50.612Z,8.49
2018-10-19T00:20:18.636Z,8.51
2018-10-19T00:22:46.650Z,8.47
2018-10-19T00:25:14.628Z,8.42
2018-10-19T00:27:42.674Z,8.32
2018-10-19T00:30:11.312Z,8.28
2018-10-19T00:32:39.383Z,8.26
2018-10-19T00:35:08.205Z,8.13
2018-10-19T00:37:36.160Z,8.03
2018-10-19T00:40:04.252Z,8.10
2018-10-19T00:42:32.389Z,8.12
2018-10-19T00:45:00.423Z,8.06
2018-10-19T00:47:28.633Z,8.04
2018-10-19T00:49:56.625Z,8.05
2018-10-19T00:52:24.607Z,8.03
2018-10-19T00:54:52.660Z,7.95
2018-10-19T00:57:20.683Z,7.95
2018-10-19T00:59:48.708Z,7.96
2018-10-19T01:02:16.752Z,7.78
2018-10-19T01:04:44.769Z,7.80
2018-10-19T01:07:12.739Z,7.85
2018-10-19T01:09:40.754Z,7.82
2018-10-19T01:12:08.836Z,7.80
2018-10-19T01:14:36.918Z,7.78
2018-10-19T01:17:05.048Z,7.83
2018-10-19T01:19:33.009Z,7.79
2018-10-19T01:22:01.204Z,7.75
2018-10-19T01:24:29.185Z,7.70
2018-10-19T01:26:57.239Z,7.69
2018-10-19T01:29:25.245Z,7.70
2018-10-19T01:31:53.236Z,7.67
2018-10-19T01:34:21.268Z,7.68
2018-10-19T01:36:49.289Z,7.65
2018-10-19T01:39:17.279Z,7.64
2018-10-19T01:41:45.317Z,7.65
2018-10-19T01:44:13.412Z,7.61
2018-10-19T01:46:47.438Z,7.56
2018-10-19T01:49:15.645Z,7.55
2018-10-19T01:51:44.261Z,7.53
2018-10-19T01:54:12.301Z,7.46
2018-10-19T01:56:40.319Z,7.45
2018-10-19T01:59:08.441Z,7.44
2018-10-19T02:01:36.477Z,7.43
2018-10-19T02:04:04.469Z,7.40
2018-10-19T02:06:32.592Z,7.29
2018-10-19T02:09:00.627Z,7.32
2018-10-19T02:11:28.598Z,7.22
2018-10-19T02:13:56.601Z,7.18
2018-10-19T02:16:24.619Z,7.21
2018-10-19T02:18:52.649Z,7.13
2018-10-19T02:21:20.635Z,7.09
2018-10-19T02:23:48.633Z,7.08
2018-10-19T02:26:16.636Z,7.06
2018-10-19T02:28:44.632Z,7.06
2018-10-19T02:31:12.671Z,7.08
2018-10-19T02:33:40.652Z,7.06
2018-10-19T02:36:08.864Z,6.96
2018-10-19T02:38:36.869Z,6.84
2018-10-19T02:41:05.288Z,6.87
2018-10-19T02:43:33.280Z,6.83
2018-10-19T02:46:01.265Z,6.88
2018-10-19T02:48:29.301Z,6.75
2018-10-19T02:50:57.407Z,6.77
2018-10-19T02:53:25.345Z,6.74
2018-10-19T02:55:53.356Z,6.72
2018-10-19T02:58:21.369Z,6.74
2018-10-19T03:00:49.437Z,6.73
2018-10-19T03:03:17.490Z,6.70
2018-10-19T03:05:45.533Z,6.64
2018-10-19T03:08:13.536Z,6.65
2018-10-19T03:10:41.585Z,6.65
2018-10-19T03:13:09.656Z,6.67
2018-10-19T03:15:37.676Z,6.64
2018-10-19T03:18:05.950Z,6.62
2018-10-19T03:20:33.925Z,6.59
2018-10-19T03:23:02.108Z,6.49
2018-10-19T03:25:30.051Z,6.50
2018-10-19T03:27:58.055Z,6.50
2018-10-19T03:30:26.066Z,6.49
2018-10-19T03:32:54.093Z,6.49
2018-10-19T03:35:22.114Z,6.46
2018-10-19T03:37:51.150Z,6.42
2018-10-19T03:40:19.125Z,6.35
2018-10-19T03:42:47.121Z,6.34
2018-10-19T03:45:15.208Z,6.15
2018-10-19T03:47:43.206Z,6.18
2018-10-19T03:50:11.225Z,6.11
2018-10-19T03:52:39.234Z,6.12
2018-10-19T03:55:07.252Z,6.09
2018-10-19T03:57:35.250Z,6.13
2018-10-19T04:00:03.346Z,6.12
2018-10-19T04:02:31.336Z,6.12
2018-10-19T04:04:59.414Z,5.98
2018-10-19T04:07:27.416Z,5.85
2018-10-19T04:09:55.425Z,5.85
2018-10-19T04:12:23.465Z,5.78
2018-10-19T04:14:51.469Z,5.82
2018-10-19T04:17:19.468Z,5.91
2018-10-19T04:19:47.533Z,5.92
2018-10-19T04:22:15.638Z,5.93
2018-10-19T04:24:43.685Z,5.92
2018-10-19T04:27:11.946Z,5.90
2018-10-19T04:29:39.917Z,5.89
2018-10-19T04:32:07.912Z,5.95
2018-10-19T04:34:35.909Z,5.68
2018-10-19T04:37:05.530Z,5.63
2018-10-19T04:39:33.962Z,5.60
2018-10-19T04:42:02.667Z,5.70
2018-10-19T04:44:30.681Z,5.73
2018-10-19T04:46:58.723Z,5.71
2018-10-19T04:49:27.000Z,5.74
2018-10-19T04:51:55.005Z,5.77
2018-10-19T04:54:23.292Z,5.81
2018-10-19T04:56:51.296Z,5.84
2018-10-19T04:59:19.489Z,5.85
2018-10-19T05:01:47.840Z,5.89
2018-10-19T05:04:15.894Z,5.88
2018-10-19T05:06:44.198Z,5.93
2018-10-19T05:09:13.085Z,5.88
2018-10-19T05:11:41.215Z,5.92
2018-10-19T05:14:09.702Z,5.89
2018-10-19T05:16:38.223Z,5.80
2018-10-19T05:19:06.776Z,5.70
2018-10-19T05:21:35.565Z,5.70
2018-10-19T05:24:03.598Z,5.67
2018-10-19T05:26:31.619Z,5.69
2018-10-19T05:28:59.655Z,5.72
2018-10-19T05:31:27.649Z,5.62
2018-10-19T05:33:57.057Z,5.55
2018-10-19T05:36:25.297Z,5.48
2018-10-19T05:38:53.465Z,5.52
2018-10-19T05:41:21.835Z,5.52
2018-10-19T05:43:49.887Z,5.57
2018-10-19T05:46:18.090Z,5.60
2018-10-19T05:48:46.137Z,5.61
2018-10-19T05:51:14.184Z,5.58
2018-10-19T05:53:42.224Z,5.56
2018-10-19T05:56:10.227Z,5.47
2018-10-19T05:58:38.314Z,5.43
2018-10-19T06:01:06.666Z,5.45
2018-10-19T06:03:34.729Z,5.46
2018-10-19T06:06:02.775Z,5.40
2018-10-19T06:08:30.893Z,5.43
2018-10-19T06:10:58.987Z,5.45
2018-10-19T06:13:27.266Z,5.54
2018-10-19T06:15:55.268Z,5.57
2018-10-19T06:18:23.293Z,5.64
2018-10-19T06:20:51.294Z,5.67
2018-10-19T06:23:19.387Z,5.73
2018-10-19T06:25:47.419Z,5.79
2018-10-19T06:28:15.459Z,5.93
2018-10-19T06:30:43.437Z,6.06
2018-10-19T06:33:11.428Z,6.20
2018-10-19T06:35:39.450Z,6.36
2018-10-19T06:38:07.744Z,7.02
2018-10-19T06:40:35.839Z,8.28
2018-10-19T06:43:03.837Z,9.70
2018-10-19T06:45:31.860Z,11.04
2018-10-19T06:47:59.907Z,12.21
2018-10-19T06:50:27.892Z,13.25
2018-10-19T06:52:55.944Z,14.09
2018-10-19T06:55:23.940Z,14.86
2018-10-19T06:57:52.097Z,15.84
2018-10-19T07:00:20.069Z,16.86
2018-10-19T07:02:48.085Z,17.86
2018-10-19T07:05:16.135Z,18.71
2018-10-19T07:07:44.153Z,19.69
2018-10-19T07:10:12.305Z,20.54
2018-10-19T07:12:40.983Z,20.92
2018-10-19T07:15:09.792Z,21.36
2018-10-19T07:17:38.156Z,21.63
2018-10-19T07:20:07.203Z,22.29
2018-10-19T07:22:35.185Z,23.18
2018-10-19T07:25:03.264Z,23.74
2018-10-19T07:27:31.284Z,24.39
2018-10-19T07:29:59.461Z,24.95
2018-10-19T07:32:27.473Z,25.21
2018-10-19T07:34:55.593Z,24.79
2018-10-19T07:37:23.702Z,24.92
2018-10-19T07:39:51.862Z,24.94
2018-10-19T07:42:19.935Z,24.58
2018-10-19T07:44:47.998Z,24.96
2018-10-19T07:47:16.113Z,25.16
2018-10-19T07:49:44.050Z,25.32
2018-10-19T07:52:12.084Z,25.47
2018-10-19T07:54:40.246Z,25.44
2018-10-19T07:57:08.262Z,25.55
2018-10-19T07:59:36.296Z,25.68
2018-10-19T08:02:04.920Z,25.73
2018-10-19T08:04:32.894Z,25.90
2018-10-19T08:07:00.893Z,26.12
2018-10-19T08:09:28.913Z,26.49
2018-10-19T08:11:56.931Z,26.74
2018-10-19T08:14:24.978Z,26.61
2018-10-19T08:16:53.048Z,26.81
2018-10-19T08:19:21.078Z,27.39
2018-10-19T08:21:49.182Z,27.61
2018-10-19T08:24:17.213Z,27.98
2018-10-19T08:26:45.229Z,28.18
2018-10-19T08:29:13.342Z,27.59
2018-10-19T08:31:41.293Z,27.92
2018-10-19T08:34:09.298Z,28.41
2018-10-19T08:36:37.377Z,28.69
2018-10-19T08:39:07.409Z,28.81
2018-10-19T08:41:35.495Z,28.40
2018-10-19T08:44:03.553Z,28.78
2018-10-19T08:46:37.129Z,28.73
2018-10-19T08:49:06.673Z,28.37
2018-10-19T08:51:34.709Z,28.19
2018-10-19T08:54:02.781Z,28.20
2018-10-19T08:56:30.836Z,28.20
2018-10-19T08:58:58.948Z,27.97
2018-10-19T09:01:27.217Z,27.56
2018-10-19T09:03:55.376Z,27.59
2018-10-19T09:06:23.393Z,27.17
2018-10-19T09:08:52.573Z,26.78
2018-10-19T09:11:20.617Z,26.22
2018-10-19T09:13:48.681Z,25.74
2018-10-19T09:16:16.672Z,25.61
2018-10-19T09:18:44.737Z,25.21
2018-10-19T09:21:12.894Z,24.88
2018-10-19T09:23:40.836Z,24.34
2018-10-19T09:26:08.982Z,23.80
2018-10-19T09:28:37.032Z,23.85
2018-10-19T09:31:05.508Z,23.96
2018-10-19T09:33:33.554Z,23.80
2018-10-19T09:36:01.842Z,24.23
2018-10-19T09:38:29.852Z,23.93
2018-10-19T09:40:58.004Z,24.16
2018-10-19T09:43:25.972Z,24.60
2018-10-19T09:45:53.990Z,24.63
2018-10-19T09:48:22.019Z,24.44
2018-10-19T09:50:50.113Z,24.82
2018-10-19T09:53:18.144Z,24.92
2018-10-19T09:55:46.253Z,25.03
2018-10-19T09:58:14.271Z,24.00
2018-10-19T10:00:47.924Z,23.73
2018-10-19T10:03:16.181Z,24.13
2018-10-19T10:05:44.228Z,23.97
2018-10-19T10:08:12.309Z,23.41
2018-10-19T10:10:40.332Z,23.05
2018-10-19T10:13:08.574Z,23.23
2018-10-19T10:15:36.884Z,23.05
2018-10-19T10:18:05.134Z,23.05
2018-10-19T10:20:33.144Z,22.21
2018-10-19T10:23:01.129Z,21.05
2018-10-19T10:25:29.294Z,20.69
2018-10-19T10:27:57.379Z,20.80
2018-10-19T10:30:25.369Z,20.74
2018-10-19T10:32:53.420Z,19.89
2018-10-19T10:35:21.489Z,19.13
2018-10-19T10:37:49.540Z,18.91
2018-10-19T10:40:17.575Z,19.16
2018-10-19T10:42:45.564Z,18.80
2018-10-19T10:45:13.677Z,18.66
2018-10-19T10:47:41.686Z,18.39
2018-10-19T10:50:09.893Z,18.07
2018-10-19T10:52:37.926Z,17.71
2018-10-19T10:55:06.129Z,18.07
2018-10-19T10:57:34.273Z,17.93
2018-10-19T11:00:02.301Z,18.15
2018-10-19T11:02:30.281Z,18.13
2018-10-19T11:04:58.264Z,18.44
2018-10-19T11:07:26.361Z,18.51
2018-10-19T11:09:54.347Z,18.10
2018-10-19T11:12:22.390Z,17.65
2018-10-19T11:14:50.403Z,17.36
2018-10-19T11:17:18.817Z,17.44
2018-10-19T11:19:46.873Z,16.94
2018-10-19T11:22:15.026Z,16.80
2018-10-19T11:24:42.980Z,16.57
2018-10-19T11:27:11.025Z,16.23
2018-10-19T11:29:39.117Z,16.19
2018-10-19T11:32:07.335Z,16.08
2018-10-19T11:34:35.356Z,15.85
2018-10-19T11:37:03.697Z,15.80
2018-10-19T11:39:31.838Z,15.52
2018-10-19T11:41:59.932Z,15.54
2018-10-19T11:44:27.921Z,15.62
2018-10-19T11:46:59.821Z,15.50
2018-10-19T11:49:28.206Z,15.69
2018-10-19T11:51:56.353Z,15.90
2018-10-19T11:54:24.336Z,16.15
2018-10-19T11:56:52.356Z,15.99
2018-10-19T11:59:20.393Z,16.10
2018-10-19T12:01:48.412Z,16.30
2018-10-19T12:04:16.482Z,16.13
2018-10-19T12:06:44.450Z,16.56
2018-10-19T12:09:12.906Z,16.56
2018-10-19T12:11:41.001Z,16.87
2018-10-19T12:14:09.425Z,17.20
2018-10-19T12:16:37.464Z,17.21
2018-10-19T12:19:05.599Z,17.64
2018-10-19T12:21:33.671Z,18.12
2018-10-19T12:24:01.946Z,18.45
2018-10-19T12:26:30.018Z,18.60
2018-10-19T12:28:58.044Z,18.05
2018-10-19T12:31:26.093Z,17.77
2018-10-19T12:33:54.111Z,17.99
2018-10-19T12:36:22.161Z,18.23
2018-10-19T12:38:50.286Z,18.28
2018-10-19T12:41:18.361Z,18.58
2018-10-19T12:43:46.515Z,18.90
2018-10-19T12:46:27.164Z,18.92
2018-10-19T12:48:55.733Z,18.75
2018-10-19T12:51:23.797Z,18.84
2018-10-19T12:53:51.831Z,18.67
2018-10-19T12:56:20.774Z,18.67
2018-10-19T12:58:49.806Z,18.50
2018-10-19T13:01:17.917Z,18.14
2018-10-19T13:03:45.942Z,18.05
2018-10-19T13:06:13.953Z,18.15
2018-10-19T13:08:42.277Z,18.22
2018-10-19T13:11:10.455Z,18.16
2018-10-19T13:13:38.505Z,18.39
2018-10-19T13:16:06.529Z,18.41
2018-10-19T13:18:34.636Z,18.46
2018-10-19T13:21:03.495Z,18.40
2018-10-19T13:23:32.573Z,18.62
2018-10-19T13:26:00.797Z,18.48
2018-10-19T13:28:28.835Z,17.85
2018-10-19T13:30:56.908Z,18.18
2018-10-19T13:33:25.208Z,17.88
2018-10-19T13:35:53.354Z,18.11
2018-10-19T13:38:21.938Z,17.55
2018-10-19T13:40:50.392Z,17.58
2018-10-19T13:43:18.548Z,17.64
2018-10-19T13:45:46.768Z,17.91
2018-10-19T13:48:14.742Z,18.05
2018-10-19T13:50:43.043Z,18.25
2018-10-19T13:53:11.105Z,18.37
2018-10-19T13:55:39.194Z,17.66
2018-10-19T13:58:07.193Z,17.17
2018-10-19T14:00:35.300Z,17.42
2018-10-19T14:03:03.396Z,17.41
2018-10-19T14:05:31.539Z,16.96
2018-10-19T14:07:59.453Z,17.20
2018-10-19T14:10:27.556Z,17.16
2018-10-19T14:12:55.572Z,17.37
2018-10-19T14:15:23.601Z,16.62
2018-10-19T14:17:51.617Z,16.25
2018-10-19T14:20:20.881Z,16.66
2018-10-19T14:22:48.886Z,16.72
2018-10-19T14:25:16.913Z,16.57
2018-10-19T14:27:45.385Z,16.61
2018-10-19T14:30:14.720Z,16.73
2018-10-19T14:32:43.170Z,16.87
2018-10-19T14:35:12.107Z,16.89
2018-10-19T14:37:41.107Z,17.02
2018-10-19T14:40:11.365Z,17.08
2018-10-19T14:42:40.083Z,17.01
2018-10-19T14:45:09.163Z,17.14
2018-10-19T14:47:37.677Z,17.14
2018-10-19T14:50:06.674Z,17.01
2018-10-19T14:52:34.686Z,16.92
2018-10-19T14:55:02.775Z,16.91
2018-10-19T14:57:30.796Z,16.11
2018-10-19T14:59:58.799Z,16.25
2018-10-19T15:02:26.828Z,16.15
2018-10-19T15:04:54.894Z,15.96
2018-10-19T15:07:22.844Z,15.84
2018-10-19T15:09:51.092Z,15.47
2018-10-19T15:12:18.873Z,15.45
2018-10-19T15:14:46.993Z,15.51
2018-10-19T15:17:15.009Z,15.63
2018-10-19T15:19:43.145Z,15.55
2018-10-19T15:22:11.317Z,15.53
2018-10-19T15:24:39.396Z,15.55
2018-10-19T15:27:07.736Z,15.58
2018-10-19T15:29:35.822Z,15.70
2018-10-19T15:32:03.781Z,15.63
2018-10-19T15:34:31.820Z,15.59
2018-10-19T15:36:59.945Z,15.55
2018-10-19T15:39:27.961Z,15.35
2018-10-19T15:41:55.986Z,15.37
2018-10-19T15:44:24.072Z,15.39
2018-10-19T15:46:52.061Z,15.30
2018-10-19T15:49:20.089Z,15.31
2018-10-19T15:51:48.110Z,15.25
2018-10-19T15:54:16.164Z,15.31
2018-10-19T15:56:44.282Z,15.30
2018-10-19T15:59:12.318Z,15.35
2018-10-19T16:01:40.361Z,15.20
2018-10-19T16:04:08.416Z,15.02
2018-10-19T16:06:36.428Z,15.04
2018-10-19T16:09:07.548Z,15.05
2018-10-19T16:11:35.569Z,14.95
2018-10-19T16:14:03.615Z,14.98
2018-10-19T16:16:31.624Z,14.87
2018-10-19T16:18:59.639Z,14.71
2018-10-19T16:21:27.633Z,14.70
2018-10-19T16:23:55.647Z,14.56
2018-10-19T16:26:23.632Z,14.53
2018-10-19T16:28:51.679Z,14.44
2018-10-19T16:31:19.677Z,14.38
2018-10-19T16:33:47.688Z,14.30
2018-10-19T16:36:15.774Z,14.24
2018-10-19T16:38:43.786Z,14.09
2018-10-19T16:41:11.811Z,14.01
2018-10-19T16:43:39.809Z,13.87
2018-10-19T16:46:07.876Z,13.77
2018-10-19T16:48:35.854Z,13.70
2018-10-19T16:51:04.013Z,13.68
2018-10-19T16:53:32.053Z,13.57
2018-10-19T16:56:00.230Z,13.47
2018-10-19T16:58:28.399Z,13.34
2018-10-19T17:00:56.397Z,13.16
2018-10-19T17:03:24.558Z,13.11
2018-10-19T17:05:52.588Z,13.05
2018-10-19T17:08:20.603Z,13.04
2018-10-19T17:10:48.618Z,12.97
2018-10-19T17:13:17.516Z,12.89
2018-10-19T17:15:45.594Z,12.85
2018-10-19T17:18:13.602Z,12.68
2018-10-19T17:20:41.624Z,12.69
2018-10-19T17:23:09.731Z,12.58
2018-10-19T17:25:37.766Z,12.48
2018-10-19T17:28:06.113Z,12.41
2018-10-19T17:33:13.658Z,12.34
2018-10-19T17:35:41.695Z,12.35
2018-10-19T17:38:09.713Z,12.29
2018-10-19T17:40:37.748Z,12.26
2018-10-19T17:43:06.315Z,12.17
2018-10-19T17:45:34.243Z,12.16
2018-10-19T17:48:02.471Z,11.99
2018-10-19T17:50:30.456Z,11.91
2018-10-19T17:52:58.518Z,11.82
2018-10-19T17:55:26.608Z,11.76
2018-10-19T17:57:54.616Z,11.65
2018-10-19T18:00:22.715Z,11.60
2018-10-19T18:02:50.749Z,11.41
2018-10-19T18:05:18.773Z,11.39
2018-10-19T18:07:46.829Z,11.16
2018-10-19T18:10:14.877Z,11.17
2018-10-19T18:12:43.049Z,11.16
2018-10-19T18:15:11.125Z,11.17
2018-10-19T18:17:39.491Z,11.12
2018-10-19T18:20:07.499Z,11.04
2018-10-19T18:22:35.768Z,11.14
2018-10-19T18:25:03.781Z,11.04
2018-10-19T18:27:31.806Z,10.94
2018-10-19T18:29:59.848Z,10.89
2018-10-19T18:32:28.059Z,10.82
2018-10-19T18:34:56.336Z,10.69
2018-10-19T18:37:24.343Z,10.70
2018-10-19T18:39:52.358Z,10.61
2018-10-19T18:42:20.398Z,10.51
2018-10-19T18:44:48.476Z,10.55
2018-10-19T18:47:16.544Z,10.47
2018-10-19T18:49:44.692Z,10.45
2018-10-19T18:52:12.896Z,10.40
2018-10-19T18:54:40.981Z,10.39
2018-10-19T18:57:09.045Z,10.31
2018-10-19T18:59:37.101Z,10.25
2018-10-19T19:02:05.583Z,10.21
2018-10-19T19:04:33.563Z,10.19
2018-10-19T19:07:01.690Z,10.15
2018-10-19T19:09:29.709Z,10.11
2018-10-19T19:11:57.704Z,10.17
2018-10-19T19:14:25.805Z,10.11
2018-10-19T19:16:53.815Z,10.10
2018-10-19T19:19:21.872Z,10.13
2018-10-19T19:21:49.923Z,10.00
2018-10-19T19:24:23.410Z,9.94
2018-10-19T19:26:51.401Z,10.00
2018-10-19T19:29:19.395Z,9.94
2018-10-19T19:31:47.418Z,9.96
2018-10-19T19:34:19.968Z,9.97
2018-10-19T19:36:48.428Z,9.97
2018-10-19T19:39:16.441Z,9.93
2018-10-19T19:41:49.775Z,9.88
2018-10-19T19:44:17.764Z,9.86
2018-10-19T19:46:45.796Z,9.88
2018-10-19T19:49:19.367Z,9.85
2018-10-19T19:51:47.353Z,9.80
2018-10-19T19:54:15.401Z,9.85
2018-10-19T19:56:43.547Z,9.80
2018-10-19T19:59:11.579Z,9.77
2018-10-19T20:01:39.529Z,9.80
2018-10-19T20:04:07.730Z,9.63
2018-10-19T20:06:35.821Z,9.68
2018-10-19T20:09:05.036Z,9.71
2018-10-19T20:11:33.144Z,9.60
2018-10-19T20:14:01.153Z,9.62
2018-10-19T20:16:29.305Z,9.54
2018-10-19T20:18:57.357Z,9.60
2018-10-19T20:21:25.393Z,9.65
2018-10-19T20:23:53.497Z,9.59
2018-10-19T20:26:21.540Z,9.50
2018-10-19T20:28:49.590Z,9.54
2018-10-19T20:31:17.590Z,9.42
2018-10-19T20:33:45.877Z,9.32
2018-10-19T20:36:14.014Z,9.34
2018-10-19T20:38:42.214Z,9.34
2018-10-19T20:41:10.354Z,9.09
2018-10-19T20:43:38.390Z,9.02
2018-10-19T20:46:06.810Z,8.93
2018-10-19T20:48:35.023Z,8.95
2018-10-19T20:51:03.196Z,8.96
2018-10-19T20:53:31.691Z,8.88
2018-10-19T20:55:59.789Z,8.86
2018-10-19T20:58:27.788Z,8.81
2018-10-19T21:00:55.905Z,8.75
2018-10-19T21:03:23.984Z,8.71
2018-10-19T21:08:15.132Z,8.59
2018-10-19T21:10:43.068Z,8.44
2018-10-19T21:13:11.139Z,8.32
2018-10-19T21:15:39.131Z,8.38
2018-10-19T21:18:07.285Z,8.38
2018-10-19T21:20:35.350Z,8.36
2018-10-19T21:23:03.508Z,8.45
2018-10-19T21:25:31.547Z,8.43
2018-10-19T21:27:59.578Z,8.59
2018-10-19T21:30:27.751Z,8.61
2018-10-19T21:32:55.753Z,8.70
2018-10-19T21:35:24.048Z,8.78
2018-10-19T21:37:52.112Z,8.88
2018-10-19T21:40:20.508Z,9.00
2018-10-19T21:42:48.647Z,9.00
2018-10-19T21:45:16.694Z,9.09
2018-10-19T21:47:44.792Z,9.17
2018-10-19T21:50:13.968Z,9.25
2018-10-19T21:52:41.932Z,9.33
2018-10-19T21:55:11.277Z,9.36
2018-10-19T21:57:39.345Z,9.38
2018-10-19T22:00:08.362Z,9.36
2018-10-19T22:02:36.449Z,9.38
2018-10-19T22:05:04.599Z,9.47
2018-10-19T22:07:32.580Z,9.35
2018-10-19T22:10:00.546Z,9.49
2018-10-19T22:12:28.556Z,9.36
2018-10-19T22:14:56.587Z,9.42
2018-10-19T22:17:24.597Z,9.54
2018-10-19T22:19:52.829Z,9.57
2018-10-19T22:22:20.846Z,9.71
2018-10-19T22:24:48.969Z,9.82
2018-10-19T22:27:16.977Z,9.85
2018-10-19T22:29:44.984Z,9.92
2018-10-19T22:32:13.029Z,10.00
2018-10-19T22:34:41.250Z,10.02
2018-10-19T22:37:09.305Z,10.05
2018-10-19T22:39:37.333Z,10.12
2018-10-19T22:42:05.415Z,10.15
2018-10-19T22:44:34.306Z,10.08
2018-10-19T22:47:02.395Z,10.14
2018-10-19T22:49:30.373Z,10.19
2018-10-19T22:51:58.364Z,10.20
2018-10-19T22:54:26.368Z,10.18
2018-10-19T22:56:54.476Z,10.06
2018-10-19T22:59:22.678Z,9.89
2018-10-19T23:01:50.665Z,9.89
2018-10-19T23:04:18.698Z,9.90
2018-10-19T23:06:46.856Z,9.87
2018-10-19T23:09:14.869Z,9.75
2018-10-19T23:11:42.909Z,9.70
2018-10-19T23:14:10.916Z,9.60
2018-10-19T23:16:38.924Z,9.48
2018-10-19T23:19:06.999Z,9.41
2018-10-19T23:21:34.963Z,9.47
2018-10-19T23:24:03.218Z,9.44
2018-10-19T23:26:31.236Z,9.53
2018-10-19T23:28:59.296Z,9.42
2018-10-19T23:31:27.531Z,9.42
2018-10-19T23:33:55.382Z,9.46
2018-10-19T23:36:23.445Z,9.41
2018-10-19T23:38:51.457Z,9.57
2018-10-19T23:41:19.461Z,9.59
2018-10-19T23:43:47.527Z,9.59
2018-10-19T23:46:15.485Z,9.64
2018-10-19T23:48:43.799Z,9.59
2018-10-19T23:51:11.813Z,9.59
2018-10-19T23:53:39.817Z,9.65
2018-10-19T23:56:07.830Z,9.62
2018-10-19T23:58:35.829Z,9.53
